sensor_id;sensor_type;location;lat;lon;timestamp;P1;durP1;ratioP1;P2;durP2;ratioP2
45434;SDS011;31183;47.404;8.500;2024-03-22T00:01:09;8.85;;;6.18;;
45434;SDS011;31183;47.404;8.500;2024-03-22T00:03:35;7.28;;;6.13;;
45434;SDS011;31183;47.404;8.500;2024-03-22T00:06:00;10.82;;;6.72;;
45434;SDS011;31183;47.404;8.500;2024-03-22T00:08:26;9.23;;;6.60;;
45434;SDS011;31183;47.404;8.500;2024-03-22T00:10:52;7.63;;;5.95;;
45434;SDS011;31183;47.404;8.500;2024-03-22T00:13:18;9.48;;;7.13;;
45434;SDS011;31183;47.404;8.500;2024-03-22T00:15:43;7.90;;;5.97;;
45434;SDS011;31183;47.404;8.500;2024-03-22T00:18:10;12.68;;;6.15;;
45434;SDS011;31183;47.404;8.500;2024-03-22T00:20:36;12.00;;;7.40;;
45434;SDS011;31183;47.404;8.500;2024-03-22T00:23:02;11.88;;;7.82;;
45434;SDS011;31183;47.404;8.500;2024-03-22T00:25:28;9.13;;;7.32;;
45434;SDS011;31183;47.404;8.500;2024-03-22T00:27:54;12.98;;;8.18;;
45434;SDS011;31183;47.404;8.500;2024-03-22T00:30:20;9.13;;;7.22;;
45434;SDS011;31183;47.404;8.500;2024-03-22T00:32:46;15.65;;;9.40;;
45434;SDS011;31183;47.404;8.500;2024-03-22T00:35:12;9.60;;;7.45;;
45434;SDS011;31183;47.404;8.500;2024-03-22T00:37:38;11.98;;;8.23;;
45434;SDS011;31183;47.404;8.500;2024-03-22T00:40:04;13.85;;;8.05;;
45434;SDS011;31183;47.404;8.500;2024-03-22T00:42:30;10.20;;;7.07;;
45434;SDS011;31183;47.404;8.500;2024-03-22T00:44:56;11.90;;;8.10;;
45434;SDS011;31183;47.404;8.500;2024-03-22T00:47:23;10.40;;;7.40;;
45434;SDS011;31183;47.404;8.500;2024-03-22T00:49:48;10.68;;;7.95;;
45434;SDS011;31183;47.404;8.500;2024-03-22T00:52:14;10.48;;;6.78;;
45434;SDS011;31183;47.404;8.500;2024-03-22T00:54:40;8.73;;;6.65;;
45434;SDS011;31183;47.404;8.500;2024-03-22T00:57:06;9.00;;;6.13;;
45434;SDS011;31183;47.404;8.500;2024-03-22T00:59:32;10.27;;;7.55;;
45434;SDS011;31183;47.404;8.500;2024-03-22T01:01:58;10.85;;;8.23;;
45434;SDS011;31183;47.404;8.500;2024-03-22T01:04:23;9.73;;;6.93;;
45434;SDS011;31183;47.404;8.500;2024-03-22T01:06:49;9.27;;;6.47;;
45434;SDS011;31183;47.404;8.500;2024-03-22T01:09:15;11.90;;;7.25;;
45434;SDS011;31183;47.404;8.500;2024-03-22T01:11:40;12.25;;;7.97;;
45434;SDS011;31183;47.404;8.500;2024-03-22T01:14:06;10.07;;;7.32;;
45434;SDS011;31183;47.404;8.500;2024-03-22T01:16:32;10.98;;;6.68;;
45434;SDS011;31183;47.404;8.500;2024-03-22T01:18:58;10.27;;;6.82;;
45434;SDS011;31183;47.404;8.500;2024-03-22T01:21:23;8.88;;;6.63;;
45434;SDS011;31183;47.404;8.500;2024-03-22T01:23:51;13.77;;;7.60;;
45434;SDS011;31183;47.404;8.500;2024-03-22T01:26:17;10.45;;;7.20;;
45434;SDS011;31183;47.404;8.500;2024-03-22T01:28:43;6.93;;;6.05;;
45434;SDS011;31183;47.404;8.500;2024-03-22T01:31:09;12.60;;;6.75;;
45434;SDS011;31183;47.404;8.500;2024-03-22T01:33:34;8.00;;;6.82;;
45434;SDS011;31183;47.404;8.500;2024-03-22T01:36:00;9.70;;;6.68;;
45434;SDS011;31183;47.404;8.500;2024-03-22T01:38:26;8.77;;;6.75;;
45434;SDS011;31183;47.404;8.500;2024-03-22T01:40:51;8.48;;;6.55;;
45434;SDS011;31183;47.404;8.500;2024-03-22T01:43:17;9.60;;;6.80;;
45434;SDS011;31183;47.404;8.500;2024-03-22T01:45:43;9.90;;;6.72;;
45434;SDS011;31183;47.404;8.500;2024-03-22T01:48:09;7.85;;;6.05;;
45434;SDS011;31183;47.404;8.500;2024-03-22T01:50:34;10.00;;;6.25;;
45434;SDS011;31183;47.404;8.500;2024-03-22T01:53:00;9.13;;;5.57;;
45434;SDS011;31183;47.404;8.500;2024-03-22T01:55:27;10.98;;;6.10;;
45434;SDS011;31183;47.404;8.500;2024-03-22T01:57:54;10.85;;;6.90;;
45434;SDS011;31183;47.404;8.500;2024-03-22T02:00:20;10.07;;;6.25;;
45434;SDS011;31183;47.404;8.500;2024-03-22T02:02:46;8.52;;;5.90;;
45434;SDS011;31183;47.404;8.500;2024-03-22T02:05:15;8.52;;;6.50;;
45434;SDS011;31183;47.404;8.500;2024-03-22T02:07:44;8.68;;;6.85;;
45434;SDS011;31183;47.404;8.500;2024-03-22T02:10:10;10.52;;;7.10;;
45434;SDS011;31183;47.404;8.500;2024-03-22T02:12:38;11.57;;;6.53;;
45434;SDS011;31183;47.404;8.500;2024-03-22T02:15:04;9.63;;;6.40;;
45434;SDS011;31183;47.404;8.500;2024-03-22T02:17:32;10.15;;;7.07;;
45434;SDS011;31183;47.404;8.500;2024-03-22T02:19:58;12.80;;;7.35;;
45434;SDS011;31183;47.404;8.500;2024-03-22T02:22:25;10.95;;;6.25;;
45434;SDS011;31183;47.404;8.500;2024-03-22T02:24:51;8.82;;;6.97;;
45434;SDS011;31183;47.404;8.500;2024-03-22T02:27:17;9.45;;;7.43;;
45434;SDS011;31183;47.404;8.500;2024-03-22T02:29:43;9.63;;;6.75;;
45434;SDS011;31183;47.404;8.500;2024-03-22T02:32:09;11.27;;;7.68;;
45434;SDS011;31183;47.404;8.500;2024-03-22T02:34:35;14.20;;;8.25;;
45434;SDS011;31183;47.404;8.500;2024-03-22T02:37:01;11.13;;;7.25;;
45434;SDS011;31183;47.404;8.500;2024-03-22T02:39:27;11.40;;;6.80;;
45434;SDS011;31183;47.404;8.500;2024-03-22T02:41:54;7.65;;;6.25;;
45434;SDS011;31183;47.404;8.500;2024-03-22T02:44:20;8.93;;;6.15;;
45434;SDS011;31183;47.404;8.500;2024-03-22T02:46:46;9.43;;;6.82;;
45434;SDS011;31183;47.404;8.500;2024-03-22T02:49:12;9.50;;;7.25;;
45434;SDS011;31183;47.404;8.500;2024-03-22T02:51:38;8.80;;;6.60;;
45434;SDS011;31183;47.404;8.500;2024-03-22T02:54:04;8.82;;;6.50;;
45434;SDS011;31183;47.404;8.500;2024-03-22T02:56:30;11.63;;;6.75;;
45434;SDS011;31183;47.404;8.500;2024-03-22T02:58:56;10.93;;;7.57;;
45434;SDS011;31183;47.404;8.500;2024-03-22T03:01:22;10.35;;;6.97;;
45434;SDS011;31183;47.404;8.500;2024-03-22T03:03:47;8.73;;;6.60;;
45434;SDS011;31183;47.404;8.500;2024-03-22T03:06:13;11.85;;;6.97;;
45434;SDS011;31183;47.404;8.500;2024-03-22T03:08:40;9.18;;;7.18;;
45434;SDS011;31183;47.404;8.500;2024-03-22T03:11:06;12.18;;;6.72;;
45434;SDS011;31183;47.404;8.500;2024-03-22T03:13:31;12.85;;;7.55;;
45434;SDS011;31183;47.404;8.500;2024-03-22T03:15:57;11.05;;;7.43;;
45434;SDS011;31183;47.404;8.500;2024-03-22T03:18:23;8.90;;;6.43;;
45434;SDS011;31183;47.404;8.500;2024-03-22T03:20:49;8.65;;;6.80;;
45434;SDS011;31183;47.404;8.500;2024-03-22T03:23:15;11.65;;;7.20;;
45434;SDS011;31183;47.404;8.500;2024-03-22T03:25:40;9.82;;;6.60;;
45434;SDS011;31183;47.404;8.500;2024-03-22T03:28:06;7.50;;;6.32;;
45434;SDS011;31183;47.404;8.500;2024-03-22T03:30:33;10.27;;;7.97;;
45434;SDS011;31183;47.404;8.500;2024-03-22T03:33:01;9.77;;;6.55;;
45434;SDS011;31183;47.404;8.500;2024-03-22T03:35:27;10.98;;;6.60;;
45434;SDS011;31183;47.404;8.500;2024-03-22T03:37:54;7.22;;;5.72;;
45434;SDS011;31183;47.404;8.500;2024-03-22T03:40:20;7.82;;;5.80;;
45434;SDS011;31183;47.404;8.500;2024-03-22T03:42:47;8.73;;;5.93;;
45434;SDS011;31183;47.404;8.500;2024-03-22T03:45:12;7.53;;;6.15;;
45434;SDS011;31183;47.404;8.500;2024-03-22T03:47:38;6.45;;;5.20;;
45434;SDS011;31183;47.404;8.500;2024-03-22T03:50:04;7.20;;;4.90;;
45434;SDS011;31183;47.404;8.500;2024-03-22T03:52:30;8.68;;;5.00;;
45434;SDS011;31183;47.404;8.500;2024-03-22T03:54:56;8.15;;;5.28;;
45434;SDS011;31183;47.404;8.500;2024-03-22T03:57:21;8.05;;;5.85;;
45434;SDS011;31183;47.404;8.500;2024-03-22T03:59:47;6.75;;;4.65;;
45434;SDS011;31183;47.404;8.500;2024-03-22T04:02:13;10.35;;;4.57;;
45434;SDS011;31183;47.404;8.500;2024-03-22T04:04:39;5.30;;;4.75;;
45434;SDS011;31183;47.404;8.500;2024-03-22T04:07:04;6.30;;;4.35;;
45434;SDS011;31183;47.404;8.500;2024-03-22T04:09:30;6.05;;;5.38;;
45434;SDS011;31183;47.404;8.500;2024-03-22T04:11:57;7.78;;;5.32;;
45434;SDS011;31183;47.404;8.500;2024-03-22T04:14:24;5.82;;;4.65;;
45434;SDS011;31183;47.404;8.500;2024-03-22T04:16:50;7.47;;;4.85;;
45434;SDS011;31183;47.404;8.500;2024-03-22T04:19:16;6.63;;;4.88;;
45434;SDS011;31183;47.404;8.500;2024-03-22T04:21:42;9.50;;;4.43;;
45434;SDS011;31183;47.404;8.500;2024-03-22T04:24:08;5.82;;;5.13;;
45434;SDS011;31183;47.404;8.500;2024-03-22T04:26:33;7.05;;;4.90;;
45434;SDS011;31183;47.404;8.500;2024-03-22T04:28:59;6.32;;;4.85;;
45434;SDS011;31183;47.404;8.500;2024-03-22T04:31:25;7.32;;;5.05;;
45434;SDS011;31183;47.404;8.500;2024-03-22T04:33:51;6.05;;;5.47;;
45434;SDS011;31183;47.404;8.500;2024-03-22T04:36:16;7.13;;;4.90;;
45434;SDS011;31183;47.404;8.500;2024-03-22T04:38:42;8.20;;;4.78;;
45434;SDS011;31183;47.404;8.500;2024-03-22T04:41:08;7.68;;;5.30;;
45434;SDS011;31183;47.404;8.500;2024-03-22T04:43:34;7.22;;;5.05;;
45434;SDS011;31183;47.404;8.500;2024-03-22T04:46:00;5.75;;;4.53;;
45434;SDS011;31183;47.404;8.500;2024-03-22T04:48:26;7.25;;;5.13;;
45434;SDS011;31183;47.404;8.500;2024-03-22T04:50:52;5.60;;;4.80;;
45434;SDS011;31183;47.404;8.500;2024-03-22T04:53:21;9.27;;;5.25;;
45434;SDS011;31183;47.404;8.500;2024-03-22T04:55:47;7.07;;;5.07;;
45434;SDS011;31183;47.404;8.500;2024-03-22T04:58:14;8.05;;;5.72;;
45434;SDS011;31183;47.404;8.500;2024-03-22T05:00:41;6.57;;;5.95;;
45434;SDS011;31183;47.404;8.500;2024-03-22T05:03:07;9.80;;;5.97;;
45434;SDS011;31183;47.404;8.500;2024-03-22T05:05:33;8.85;;;6.15;;
45434;SDS011;31183;47.404;8.500;2024-03-22T05:08:00;8.77;;;7.15;;
45434;SDS011;31183;47.404;8.500;2024-03-22T05:10:26;11.40;;;5.70;;
45434;SDS011;31183;47.404;8.500;2024-03-22T05:12:51;8.45;;;6.78;;
45434;SDS011;31183;47.404;8.500;2024-03-22T05:15:17;8.02;;;7.15;;
45434;SDS011;31183;47.404;8.500;2024-03-22T05:17:43;14.35;;;6.80;;
45434;SDS011;31183;47.404;8.500;2024-03-22T05:20:09;9.85;;;6.47;;
45434;SDS011;31183;47.404;8.500;2024-03-22T05:22:39;9.15;;;7.03;;
45434;SDS011;31183;47.404;8.500;2024-03-22T05:25:05;7.82;;;7.03;;
45434;SDS011;31183;47.404;8.500;2024-03-22T05:27:31;8.13;;;6.70;;
45434;SDS011;31183;47.404;8.500;2024-03-22T05:29:58;11.70;;;7.15;;
45434;SDS011;31183;47.404;8.500;2024-03-22T05:32:24;7.20;;;6.50;;
45434;SDS011;31183;47.404;8.500;2024-03-22T05:34:50;10.32;;;7.32;;
45434;SDS011;31183;47.404;8.500;2024-03-22T05:37:16;10.90;;;7.20;;
45434;SDS011;31183;47.404;8.500;2024-03-22T05:39:42;8.02;;;6.28;;
45434;SDS011;31183;47.404;8.500;2024-03-22T05:42:08;9.43;;;6.93;;
45434;SDS011;31183;47.404;8.500;2024-03-22T05:44:34;8.80;;;6.40;;
45434;SDS011;31183;47.404;8.500;2024-03-22T05:46:59;10.68;;;6.45;;
45434;SDS011;31183;47.404;8.500;2024-03-22T05:49:25;12.70;;;8.07;;
45434;SDS011;31183;47.404;8.500;2024-03-22T05:51:51;8.70;;;6.57;;
45434;SDS011;31183;47.404;8.500;2024-03-22T05:54:17;8.38;;;6.30;;
45434;SDS011;31183;47.404;8.500;2024-03-22T05:56:43;6.93;;;6.22;;
45434;SDS011;31183;47.404;8.500;2024-03-22T05:59:09;9.30;;;6.30;;
45434;SDS011;31183;47.404;8.500;2024-03-22T06:01:35;8.13;;;6.47;;
45434;SDS011;31183;47.404;8.500;2024-03-22T06:04:01;8.13;;;6.13;;
45434;SDS011;31183;47.404;8.500;2024-03-22T06:06:27;10.27;;;7.45;;
45434;SDS011;31183;47.404;8.500;2024-03-22T06:08:52;7.75;;;6.53;;
45434;SDS011;31183;47.404;8.500;2024-03-22T06:11:19;7.47;;;6.32;;
45434;SDS011;31183;47.404;8.500;2024-03-22T06:13:49;10.05;;;6.25;;
45434;SDS011;31183;47.404;8.500;2024-03-22T06:16:16;9.95;;;6.72;;
45434;SDS011;31183;47.404;8.500;2024-03-22T06:18:41;9.98;;;5.93;;
45434;SDS011;31183;47.404;8.500;2024-03-22T06:21:10;8.35;;;6.47;;
45434;SDS011;31183;47.404;8.500;2024-03-22T06:23:36;9.50;;;6.38;;
45434;SDS011;31183;47.404;8.500;2024-03-22T06:26:02;9.32;;;6.10;;
45434;SDS011;31183;47.404;8.500;2024-03-22T06:28:28;10.00;;;5.65;;
45434;SDS011;31183;47.404;8.500;2024-03-22T06:30:54;7.22;;;5.63;;
45434;SDS011;31183;47.404;8.500;2024-03-22T06:33:20;6.65;;;5.78;;
45434;SDS011;31183;47.404;8.500;2024-03-22T06:35:46;10.82;;;6.43;;
45434;SDS011;31183;47.404;8.500;2024-03-22T06:38:12;10.02;;;6.35;;
45434;SDS011;31183;47.404;8.500;2024-03-22T06:40:38;7.80;;;6.43;;
45434;SDS011;31183;47.404;8.500;2024-03-22T06:43:04;11.05;;;6.45;;
45434;SDS011;31183;47.404;8.500;2024-03-22T06:45:30;10.10;;;5.78;;
45434;SDS011;31183;47.404;8.500;2024-03-22T06:47:55;7.88;;;6.00;;
45434;SDS011;31183;47.404;8.500;2024-03-22T06:50:21;7.15;;;5.93;;
45434;SDS011;31183;47.404;8.500;2024-03-22T06:52:52;12.68;;;6.93;;
45434;SDS011;31183;47.404;8.500;2024-03-22T06:55:21;8.73;;;6.00;;
45434;SDS011;31183;47.404;8.500;2024-03-22T06:57:48;6.78;;;5.55;;
45434;SDS011;31183;47.404;8.500;2024-03-22T07:00:14;14.00;;;6.15;;
45434;SDS011;31183;47.404;8.500;2024-03-22T07:02:41;8.50;;;5.80;;
45434;SDS011;31183;47.404;8.500;2024-03-22T07:05:07;8.48;;;5.47;;
45434;SDS011;31183;47.404;8.500;2024-03-22T07:07:34;9.80;;;5.13;;
45434;SDS011;31183;47.404;8.500;2024-03-22T07:10:00;7.90;;;5.78;;
45434;SDS011;31183;47.404;8.500;2024-03-22T07:12:26;7.78;;;5.88;;
45434;SDS011;31183;47.404;8.500;2024-03-22T07:14:52;6.20;;;4.93;;
45434;SDS011;31183;47.404;8.500;2024-03-22T07:17:18;6.38;;;5.38;;
45434;SDS011;31183;47.404;8.500;2024-03-22T07:19:49;6.15;;;5.00;;
45434;SDS011;31183;47.404;8.500;2024-03-22T07:22:16;5.88;;;4.95;;
45434;SDS011;31183;47.404;8.500;2024-03-22T07:24:42;6.22;;;5.20;;
45434;SDS011;31183;47.404;8.500;2024-03-22T07:27:08;8.77;;;5.13;;
45434;SDS011;31183;47.404;8.500;2024-03-22T07:29:34;9.35;;;4.95;;
45434;SDS011;31183;47.404;8.500;2024-03-22T07:31:59;10.82;;;5.45;;
45434;SDS011;31183;47.404;8.500;2024-03-22T07:34:25;7.82;;;4.45;;
45434;SDS011;31183;47.404;8.500;2024-03-22T07:36:51;6.28;;;4.45;;
45434;SDS011;31183;47.404;8.500;2024-03-22T07:39:16;7.03;;;4.90;;
45434;SDS011;31183;47.404;8.500;2024-03-22T07:41:42;6.95;;;4.55;;
45434;SDS011;31183;47.404;8.500;2024-03-22T07:44:08;5.13;;;4.10;;
45434;SDS011;31183;47.404;8.500;2024-03-22T07:46:34;4.82;;;4.25;;
45434;SDS011;31183;47.404;8.500;2024-03-22T07:48:59;6.47;;;4.97;;
45434;SDS011;31183;47.404;8.500;2024-03-22T07:51:25;7.57;;;4.35;;
45434;SDS011;31183;47.404;8.500;2024-03-22T07:53:51;10.82;;;4.80;;
45434;SDS011;31183;47.404;8.500;2024-03-22T07:56:17;7.72;;;4.30;;
45434;SDS011;31183;47.404;8.500;2024-03-22T07:58:44;6.40;;;4.22;;
45434;SDS011;31183;47.404;8.500;2024-03-22T08:01:09;5.47;;;4.75;;
45434;SDS011;31183;47.404;8.500;2024-03-22T08:03:35;7.15;;;4.28;;
45434;SDS011;31183;47.404;8.500;2024-03-22T08:06:01;7.88;;;4.18;;
45434;SDS011;31183;47.404;8.500;2024-03-22T08:08:27;6.43;;;4.18;;
45434;SDS011;31183;47.404;8.500;2024-03-22T08:10:53;6.72;;;4.10;;
45434;SDS011;31183;47.404;8.500;2024-03-22T08:13:18;6.05;;;4.43;;
45434;SDS011;31183;47.404;8.500;2024-03-22T08:15:44;4.57;;;3.90;;
45434;SDS011;31183;47.404;8.500;2024-03-22T08:18:11;5.55;;;4.40;;
45434;SDS011;31183;47.404;8.500;2024-03-22T08:20:38;6.63;;;4.38;;
45434;SDS011;31183;47.404;8.500;2024-03-22T08:23:07;8.35;;;4.43;;
45434;SDS011;31183;47.404;8.500;2024-03-22T08:25:33;5.82;;;3.83;;
45434;SDS011;31183;47.404;8.500;2024-03-22T08:27:58;6.93;;;4.00;;
45434;SDS011;31183;47.404;8.500;2024-03-22T08:30:24;6.55;;;4.15;;
45434;SDS011;31183;47.404;8.500;2024-03-22T08:32:51;5.82;;;3.75;;
45434;SDS011;31183;47.404;8.500;2024-03-22T08:35:17;7.78;;;4.55;;
45434;SDS011;31183;47.404;8.500;2024-03-22T08:37:43;5.45;;;4.07;;
45434;SDS011;31183;47.404;8.500;2024-03-22T08:40:09;6.90;;;3.60;;
45434;SDS011;31183;47.404;8.500;2024-03-22T08:42:35;6.25;;;3.78;;
45434;SDS011;31183;47.404;8.500;2024-03-22T08:45:01;4.55;;;3.97;;
45434;SDS011;31183;47.404;8.500;2024-03-22T08:47:29;3.85;;;3.40;;
45434;SDS011;31183;47.404;8.500;2024-03-22T08:49:55;5.30;;;3.75;;
45434;SDS011;31183;47.404;8.500;2024-03-22T08:52:23;7.88;;;3.75;;
45434;SDS011;31183;47.404;8.500;2024-03-22T08:54:49;6.97;;;3.85;;
45434;SDS011;31183;47.404;8.500;2024-03-22T08:57:15;5.18;;;3.38;;
45434;SDS011;31183;47.404;8.500;2024-03-22T08:59:41;4.43;;;3.70;;
45434;SDS011;31183;47.404;8.500;2024-03-22T09:02:07;6.60;;;3.45;;
45434;SDS011;31183;47.404;8.500;2024-03-22T09:04:33;4.72;;;3.30;;
45434;SDS011;31183;47.404;8.500;2024-03-22T09:06:58;5.28;;;3.40;;
45434;SDS011;31183;47.404;8.500;2024-03-22T09:09:24;7.95;;;3.97;;
45434;SDS011;31183;47.404;8.500;2024-03-22T09:11:50;8.00;;;3.90;;
45434;SDS011;31183;47.404;8.500;2024-03-22T09:14:15;5.07;;;3.35;;
45434;SDS011;31183;47.404;8.500;2024-03-22T09:16:42;9.07;;;4.00;;
45434;SDS011;31183;47.404;8.500;2024-03-22T09:19:08;6.63;;;3.90;;
45434;SDS011;31183;47.404;8.500;2024-03-22T09:21:35;6.10;;;3.97;;
45434;SDS011;31183;47.404;8.500;2024-03-22T09:24:01;5.28;;;3.53;;
45434;SDS011;31183;47.404;8.500;2024-03-22T09:26:28;5.45;;;3.72;;
45434;SDS011;31183;47.404;8.500;2024-03-22T09:28:54;5.55;;;4.30;;
45434;SDS011;31183;47.404;8.500;2024-03-22T09:31:20;7.65;;;3.92;;
45434;SDS011;31183;47.404;8.500;2024-03-22T09:33:45;8.25;;;4.53;;
45434;SDS011;31183;47.404;8.500;2024-03-22T09:36:11;5.82;;;4.57;;
45434;SDS011;31183;47.404;8.500;2024-03-22T09:38:37;6.32;;;4.15;;
45434;SDS011;31183;47.404;8.500;2024-03-22T09:41:03;4.25;;;3.85;;
45434;SDS011;31183;47.404;8.500;2024-03-22T09:43:28;6.32;;;3.80;;
45434;SDS011;31183;47.404;8.500;2024-03-22T09:45:57;6.03;;;3.85;;
45434;SDS011;31183;47.404;8.500;2024-03-22T09:48:23;8.45;;;4.03;;
45434;SDS011;31183;47.404;8.500;2024-03-22T09:50:51;8.07;;;3.95;;
45434;SDS011;31183;47.404;8.500;2024-03-22T09:53:18;6.43;;;3.30;;
45434;SDS011;31183;47.404;8.500;2024-03-22T09:55:49;6.95;;;4.32;;
45434;SDS011;31183;47.404;8.500;2024-03-22T09:58:15;7.50;;;4.30;;
45434;SDS011;31183;47.404;8.500;2024-03-22T10:00:44;7.03;;;3.47;;
45434;SDS011;31183;47.404;8.500;2024-03-22T10:03:10;5.65;;;4.20;;
45434;SDS011;31183;47.404;8.500;2024-03-22T10:05:36;5.47;;;4.35;;
45434;SDS011;31183;47.404;8.500;2024-03-22T10:08:02;8.25;;;4.22;;
45434;SDS011;31183;47.404;8.500;2024-03-22T10:10:31;5.10;;;4.28;;
45434;SDS011;31183;47.404;8.500;2024-03-22T10:12:57;10.82;;;3.33;;
45434;SDS011;31183;47.404;8.500;2024-03-22T10:15:25;4.97;;;3.50;;
45434;SDS011;31183;47.404;8.500;2024-03-22T10:17:51;3.05;;;2.67;;
45434;SDS011;31183;47.404;8.500;2024-03-22T10:20:19;5.30;;;3.10;;
45434;SDS011;31183;47.404;8.500;2024-03-22T10:22:49;3.47;;;2.08;;
45434;SDS011;31183;47.404;8.500;2024-03-22T10:25:22;3.33;;;2.33;;
45434;SDS011;31183;47.404;8.500;2024-03-22T10:27:48;3.55;;;2.47;;
45434;SDS011;31183;47.404;8.500;2024-03-22T10:30:15;2.47;;;2.28;;
45434;SDS011;31183;47.404;8.500;2024-03-22T10:32:42;5.30;;;2.13;;
45434;SDS011;31183;47.404;8.500;2024-03-22T10:35:08;2.63;;;2.00;;
45434;SDS011;31183;47.404;8.500;2024-03-22T10:37:37;5.43;;;2.83;;
45434;SDS011;31183;47.404;8.500;2024-03-22T10:40:03;3.38;;;2.45;;
45434;SDS011;31183;47.404;8.500;2024-03-22T10:42:35;4.90;;;2.35;;
45434;SDS011;31183;47.404;8.500;2024-03-22T10:45:05;3.28;;;2.13;;
45434;SDS011;31183;47.404;8.500;2024-03-22T10:47:33;3.47;;;2.10;;
45434;SDS011;31183;47.404;8.500;2024-03-22T10:50:10;3.28;;;1.95;;
45434;SDS011;31183;47.404;8.500;2024-03-22T10:52:45;3.15;;;2.30;;
45434;SDS011;31183;47.404;8.500;2024-03-22T10:55:16;2.60;;;1.80;;
45434;SDS011;31183;47.404;8.500;2024-03-22T10:57:59;3.35;;;1.83;;
45434;SDS011;31183;47.404;8.500;2024-03-22T11:00:28;3.08;;;1.75;;
45434;SDS011;31183;47.404;8.500;2024-03-22T11:02:55;1.40;;;1.30;;
45434;SDS011;31183;47.404;8.500;2024-03-22T11:05:21;4.00;;;1.17;;
45434;SDS011;31183;47.404;8.500;2024-03-22T11:07:46;2.05;;;1.55;;
45434;SDS011;31183;47.404;8.500;2024-03-22T11:10:13;3.40;;;1.67;;
45434;SDS011;31183;47.404;8.500;2024-03-22T11:12:40;2.60;;;1.48;;
45434;SDS011;31183;47.404;8.500;2024-03-22T11:15:06;2.65;;;1.73;;
45434;SDS011;31183;47.404;8.500;2024-03-22T11:17:32;6.93;;;3.03;;
45434;SDS011;31183;47.404;8.500;2024-03-22T11:19:58;3.33;;;1.95;;
45434;SDS011;31183;47.404;8.500;2024-03-22T11:22:25;2.13;;;1.67;;
45434;SDS011;31183;47.404;8.500;2024-03-22T11:24:52;4.97;;;2.28;;
45434;SDS011;31183;47.404;8.500;2024-03-22T11:27:17;3.78;;;2.10;;
45434;SDS011;31183;47.404;8.500;2024-03-22T11:29:44;5.40;;;2.20;;
45434;SDS011;31183;47.404;8.500;2024-03-22T11:32:11;3.33;;;2.30;;
45434;SDS011;31183;47.404;8.500;2024-03-22T11:34:38;3.03;;;1.90;;
45434;SDS011;31183;47.404;8.500;2024-03-22T11:37:07;4.18;;;1.88;;
45434;SDS011;31183;47.404;8.500;2024-03-22T11:39:38;5.03;;;2.55;;
45434;SDS011;31183;47.404;8.500;2024-03-22T11:42:04;5.07;;;2.22;;
45434;SDS011;31183;47.404;8.500;2024-03-22T11:44:33;3.70;;;2.08;;
45434;SDS011;31183;47.404;8.500;2024-03-22T11:47:01;3.10;;;1.95;;
45434;SDS011;31183;47.404;8.500;2024-03-22T11:49:28;4.47;;;2.58;;
45434;SDS011;31183;47.404;8.500;2024-03-22T11:51:55;2.85;;;1.90;;
45434;SDS011;31183;47.404;8.500;2024-03-22T11:54:22;3.55;;;2.25;;
45434;SDS011;31183;47.404;8.500;2024-03-22T11:56:51;3.70;;;2.25;;
45434;SDS011;31183;47.404;8.500;2024-03-22T11:59:20;4.13;;;1.63;;
45434;SDS011;31183;47.404;8.500;2024-03-22T12:01:46;4.93;;;2.38;;
45434;SDS011;31183;47.404;8.500;2024-03-22T12:04:12;5.38;;;2.67;;
45434;SDS011;31183;47.404;8.500;2024-03-22T12:06:46;2.92;;;2.60;;
45434;SDS011;31183;47.404;8.500;2024-03-22T12:09:12;3.17;;;2.38;;
45434;SDS011;31183;47.404;8.500;2024-03-22T12:11:39;3.53;;;2.33;;
45434;SDS011;31183;47.404;8.500;2024-03-22T12:14:05;2.58;;;1.98;;
45434;SDS011;31183;47.404;8.500;2024-03-22T12:16:31;5.93;;;2.10;;
45434;SDS011;31183;47.404;8.500;2024-03-22T12:18:57;3.85;;;2.05;;
45434;SDS011;31183;47.404;8.500;2024-03-22T12:21:23;2.85;;;2.25;;
45434;SDS011;31183;47.404;8.500;2024-03-22T12:23:49;2.55;;;2.05;;
45434;SDS011;31183;47.404;8.500;2024-03-22T12:26:15;5.05;;;2.47;;
45434;SDS011;31183;47.404;8.500;2024-03-22T12:28:41;3.67;;;1.90;;
45434;SDS011;31183;47.404;8.500;2024-03-22T12:31:07;1.65;;;1.55;;
45434;SDS011;31183;47.404;8.500;2024-03-22T12:33:35;2.95;;;1.80;;
45434;SDS011;31183;47.404;8.500;2024-03-22T12:36:01;2.00;;;1.67;;
45434;SDS011;31183;47.404;8.500;2024-03-22T12:38:27;2.47;;;1.70;;
45434;SDS011;31183;47.404;8.500;2024-03-22T12:40:53;6.00;;;1.95;;
45434;SDS011;31183;47.404;8.500;2024-03-22T12:43:19;2.58;;;2.35;;
45434;SDS011;31183;47.404;8.500;2024-03-22T12:45:45;3.10;;;2.08;;
45434;SDS011;31183;47.404;8.500;2024-03-22T12:48:10;2.53;;;1.85;;
45434;SDS011;31183;47.404;8.500;2024-03-22T12:50:36;7.38;;;2.22;;
45434;SDS011;31183;47.404;8.500;2024-03-22T12:53:03;1.98;;;1.65;;
45434;SDS011;31183;47.404;8.500;2024-03-22T12:55:29;4.25;;;2.03;;
45434;SDS011;31183;47.404;8.500;2024-03-22T12:57:57;2.40;;;1.88;;
45434;SDS011;31183;47.404;8.500;2024-03-22T13:00:23;3.53;;;2.10;;
45434;SDS011;31183;47.404;8.500;2024-03-22T13:02:48;2.08;;;1.88;;
45434;SDS011;31183;47.404;8.500;2024-03-22T13:05:14;2.75;;;1.90;;
45434;SDS011;31183;47.404;8.500;2024-03-22T13:07:40;2.30;;;1.63;;
45434;SDS011;31183;47.404;8.500;2024-03-22T13:10:07;4.93;;;1.52;;
45434;SDS011;31183;47.404;8.500;2024-03-22T13:12:33;2.15;;;1.67;;
45434;SDS011;31183;47.404;8.500;2024-03-22T13:15:00;2.47;;;1.52;;
45434;SDS011;31183;47.404;8.500;2024-03-22T13:17:26;3.20;;;1.52;;
45434;SDS011;31183;47.404;8.500;2024-03-22T13:19:52;2.22;;;1.90;;
45434;SDS011;31183;47.404;8.500;2024-03-22T13:22:18;1.88;;;1.13;;
45434;SDS011;31183;47.404;8.500;2024-03-22T13:24:46;2.83;;;1.30;;
45434;SDS011;31183;47.404;8.500;2024-03-22T13:29:40;1.13;;;1.00;;
45434;SDS011;31183;47.404;8.500;2024-03-22T13:32:06;1.55;;;1.42;;
45434;SDS011;31183;47.404;8.500;2024-03-22T13:34:35;4.50;;;1.65;;
45434;SDS011;31183;47.404;8.500;2024-03-22T13:37:02;3.83;;;1.50;;
45434;SDS011;31183;47.404;8.500;2024-03-22T13:39:28;2.28;;;0.95;;
45434;SDS011;31183;47.404;8.500;2024-03-22T13:41:56;3.05;;;1.20;;
45434;SDS011;31183;47.404;8.500;2024-03-22T13:44:23;3.42;;;1.50;;
45434;SDS011;31183;47.404;8.500;2024-03-22T13:46:49;2.05;;;1.25;;
45434;SDS011;31183;47.404;8.500;2024-03-22T13:49:16;2.85;;;1.30;;
45434;SDS011;31183;47.404;8.500;2024-03-22T13:51:46;2.65;;;1.10;;
45434;SDS011;31183;47.404;8.500;2024-03-22T13:54:12;0.93;;;0.90;;
45434;SDS011;31183;47.404;8.500;2024-03-22T13:56:39;2.08;;;0.93;;
45434;SDS011;31183;47.404;8.500;2024-03-22T13:59:04;3.78;;;1.25;;
45434;SDS011;31183;47.404;8.500;2024-03-22T14:01:34;1.67;;;0.95;;
45434;SDS011;31183;47.404;8.500;2024-03-22T14:04:00;1.30;;;1.20;;
45434;SDS011;31183;47.404;8.500;2024-03-22T14:06:26;2.50;;;1.50;;
45434;SDS011;31183;47.404;8.500;2024-03-22T14:08:51;1.50;;;1.10;;
45434;SDS011;31183;47.404;8.500;2024-03-22T14:11:19;1.80;;;1.00;;
45434;SDS011;31183;47.404;8.500;2024-03-22T14:13:45;1.65;;;1.10;;
45434;SDS011;31183;47.404;8.500;2024-03-22T14:16:11;1.98;;;1.02;;
45434;SDS011;31183;47.404;8.500;2024-03-22T14:18:37;1.63;;;1.38;;
45434;SDS011;31183;47.404;8.500;2024-03-22T14:21:02;3.15;;;1.23;;
45434;SDS011;31183;47.404;8.500;2024-03-22T14:23:28;1.33;;;1.00;;
45434;SDS011;31183;47.404;8.500;2024-03-22T14:25:54;1.63;;;1.00;;
45434;SDS011;31183;47.404;8.500;2024-03-22T14:28:20;2.63;;;1.40;;
45434;SDS011;31183;47.404;8.500;2024-03-22T14:30:47;2.75;;;1.60;;
45434;SDS011;31183;47.404;8.500;2024-03-22T14:33:12;1.40;;;1.17;;
45434;SDS011;31183;47.404;8.500;2024-03-22T14:35:38;3.08;;;1.00;;
45434;SDS011;31183;47.404;8.500;2024-03-22T14:38:04;1.80;;;1.17;;
45434;SDS011;31183;47.404;8.500;2024-03-22T14:40:30;1.38;;;1.10;;
45434;SDS011;31183;47.404;8.500;2024-03-22T14:43:02;2.08;;;1.30;;